createdAt,value
2023-01-03T00:02:09.936Z,9.10
2023-01-03T00:04:36.659Z,9.10
2023-01-03T00:07:03.345Z,9.00
2023-01-03T00:09:29.860Z,9.10
2023-01-03T00:12:15.019Z,9.00
2023-01-03T00:14:43.863Z,9.00
2023-01-03T00:17:11.689Z,9.10
2023-01-03T00:19:44.012Z,9.20
2023-01-03T00:22:12.203Z,9.20
2023-01-03T00:24:38.896Z,9.10
2023-01-03T00:27:06.313Z,9.10
2023-01-03T00:29:33.384Z,9.10
2023-01-03T00:32:00.434Z,9.10
2023-01-03T00:34:27.137Z,9.10
2023-01-03T00:36:54.048Z,9.10
2023-01-03T00:39:21.235Z,9.20
2023-01-03T00:41:47.783Z,9.10
2023-01-03T00:44:14.846Z,9.10
2023-01-03T00:46:41.659Z,9.10
2023-01-03T00:49:08.891Z,9.10
2023-01-03T00:51:37.761Z,9.20
2023-01-03T00:54:06.264Z,9.20
2023-01-03T00:56:35.241Z,9.10
2023-01-03T00:59:02.076Z,9.20
2023-01-03T01:01:46.713Z,9.20
2023-01-03T01:04:16.999Z,9.10
2023-01-03T01:06:46.662Z,9.00
2023-01-03T01:09:17.394Z,9.10
2023-01-03T01:11:43.997Z,9.00
2023-01-03T01:14:21.872Z,8.90
2023-01-03T01:17:00.580Z,8.90
2023-01-03T01:19:32.544Z,9.00
2023-01-03T01:21:59.546Z,8.90
2023-01-03T01:24:26.251Z,9.00
2023-01-03T01:26:53.102Z,8.90
2023-01-03T01:29:20.395Z,8.90
2023-01-03T01:31:47.893Z,8.90
2023-01-03T01:34:15.654Z,8.90
2023-01-03T01:36:43.266Z,8.80
2023-01-03T01:39:19.491Z,8.70
2023-01-03T01:42:06.539Z,8.70
2023-01-03T01:44:52.631Z,8.70
2023-01-03T01:47:41.422Z,8.70
2023-01-03T01:50:17.468Z,8.60
2023-01-03T01:53:02.870Z,8.60
2023-01-03T01:55:46.663Z,8.70
2023-01-03T01:58:13.916Z,8.70
2023-01-03T02:00:42.874Z,8.50
2023-01-03T02:03:10.507Z,8.50
2023-01-03T02:05:41.402Z,8.50
2023-01-03T02:08:08.167Z,8.40
2023-01-03T02:11:01.714Z,8.50
2023-01-03T02:13:46.327Z,8.50
2023-01-03T02:16:48.172Z,8.40
2023-01-03T02:19:45.195Z,8.40
2023-01-03T02:22:36.807Z,8.30
2023-01-03T02:25:43.931Z,8.40
2023-01-03T02:28:58.146Z,8.30
2023-01-03T02:31:33.379Z,8.40
2023-01-03T02:34:21.152Z,8.40
2023-01-03T02:37:25.142Z,8.30
2023-01-03T02:40:10.589Z,8.30
2023-01-03T02:43:05.966Z,8.20
2023-01-03T02:45:51.546Z,8.20
2023-01-03T02:48:26.900Z,8.10
2023-01-03T02:50:57.665Z,8.10
2023-01-03T02:53:39.259Z,8.00
2023-01-03T02:56:10.185Z,8.00
2023-01-03T02:58:39.185Z,7.90
2023-01-03T03:01:08.643Z,7.80
2023-01-03T03:03:40.109Z,7.80
2023-01-03T03:06:44.488Z,7.80
2023-01-03T03:09:11.082Z,7.70
2023-01-03T03:11:59.987Z,7.70
2023-01-03T03:14:51.276Z,7.70
2023-01-03T03:17:22.629Z,7.60
2023-01-03T03:20:14.369Z,7.60
2023-01-03T03:23:09.967Z,7.60
2023-01-03T03:25:48.291Z,7.50
2023-01-03T03:28:35.770Z,7.50
2023-01-03T03:31:09.219Z,7.40
2023-01-03T03:33:47.393Z,7.30
2023-01-03T03:36:13.867Z,7.20
2023-01-03T03:38:43.683Z,7.30
2023-01-03T03:41:28.869Z,7.30
2023-01-03T03:44:32.653Z,7.20
2023-01-03T03:47:27.899Z,7.00
2023-01-03T03:50:02.504Z,7.00
2023-01-03T03:52:31.704Z,7.00
2023-01-03T03:55:11.487Z,6.90
2023-01-03T03:57:50.236Z,6.80
2023-01-03T04:00:22.929Z,6.70
2023-01-03T04:02:50.237Z,6.60
2023-01-03T04:05:20.541Z,6.70
2023-01-03T04:07:47.242Z,6.70
2023-01-03T04:10:15.333Z,6.60
2023-01-03T04:12:41.970Z,6.60
2023-01-03T04:15:08.871Z,6.60
2023-01-03T04:17:35.454Z,6.60
2023-01-03T04:20:02.055Z,6.50
2023-01-03T04:22:28.682Z,6.40
2023-01-03T04:24:55.207Z,6.50
2023-01-03T04:27:21.780Z,6.50
2023-01-03T04:29:48.343Z,6.40
2023-01-03T04:32:14.957Z,6.40
2023-01-03T04:34:41.502Z,6.30
2023-01-03T04:37:08.103Z,6.30
2023-01-03T04:39:34.670Z,6.30
2023-01-03T04:42:01.476Z,6.30
2023-01-03T04:44:28.429Z,6.30
2023-01-03T04:46:55.051Z,6.30
2023-01-03T04:49:21.660Z,6.30
2023-01-03T04:51:48.242Z,6.40
2023-01-03T04:54:14.948Z,6.40
2023-01-03T04:56:41.650Z,6.40
2023-01-03T04:59:08.165Z,6.40
2023-01-03T05:01:34.811Z,6.30
2023-01-03T05:04:02.523Z,6.30
2023-01-03T05:06:29.276Z,6.30
2023-01-03T05:08:56.154Z,6.20
2023-01-03T05:11:23.046Z,6.20
2023-01-03T05:13:49.806Z,6.20
2023-01-03T05:16:16.678Z,6.20
2023-01-03T05:18:43.319Z,6.10
2023-01-03T05:21:34.127Z,6.10
2023-01-03T05:24:19.661Z,6.10
2023-01-03T05:26:46.758Z,5.90
2023-01-03T05:29:16.407Z,5.90
2023-01-03T05:31:43.131Z,6.00
2023-01-03T05:34:09.821Z,5.90
2023-01-03T05:36:36.496Z,5.90
2023-01-03T05:39:04.182Z,5.80
2023-01-03T05:41:49.611Z,5.80
2023-01-03T05:44:16.631Z,5.80
2023-01-03T05:46:43.208Z,5.70
2023-01-03T05:49:09.935Z,5.70
2023-01-03T05:51:36.467Z,5.70
2023-01-03T05:54:03.220Z,5.60
2023-01-03T05:56:31.680Z,5.60
2023-01-03T05:58:58.822Z,5.60
2023-01-03T06:01:28.906Z,5.60
2023-01-03T06:03:55.782Z,5.50
2023-01-03T06:06:22.777Z,5.50
2023-01-03T06:08:49.614Z,5.50
2023-01-03T06:11:17.615Z,5.50
2023-01-03T06:13:44.756Z,5.50
2023-01-03T06:16:38.264Z,5.50
2023-01-03T06:19:06.624Z,5.50
2023-01-03T06:21:34.240Z,5.50
2023-01-03T06:24:00.872Z,5.50
2023-01-03T06:26:27.869Z,5.40
2023-01-03T06:28:54.498Z,5.40
2023-01-03T06:31:21.263Z,5.40
2023-01-03T06:33:48.517Z,5.40
2023-01-03T06:36:18.503Z,5.40
2023-01-03T06:38:45.474Z,5.30
2023-01-03T06:41:13.024Z,5.20
2023-01-03T06:43:40.541Z,5.30
2023-01-03T06:46:25.747Z,5.20
2023-01-03T06:49:11.003Z,5.20
2023-01-03T06:51:56.433Z,5.10
2023-01-03T06:54:34.161Z,5.10
2023-01-03T06:57:01.110Z,5.10
2023-01-03T06:59:27.773Z,5.20
2023-01-03T07:01:55.335Z,5.20
2023-01-03T07:04:24.217Z,5.10
2023-01-03T07:06:51.610Z,5.10
2023-01-03T07:09:18.221Z,5.10
2023-01-03T07:11:45.383Z,4.90
2023-01-03T07:14:12.754Z,4.90
2023-01-03T07:16:44.600Z,4.90
2023-01-03T07:19:16.703Z,4.80
2023-01-03T07:21:43.870Z,4.80
2023-01-03T07:24:13.161Z,4.90
2023-01-03T07:26:40.044Z,4.90
2023-01-03T07:29:09.250Z,4.80
2023-01-03T07:31:39.447Z,4.70
2023-01-03T07:34:06.145Z,4.70
2023-01-03T07:36:32.805Z,4.80
2023-01-03T07:38:59.369Z,5.00
2023-01-03T07:41:45.951Z,4.90
2023-01-03T07:44:12.525Z,4.80
2023-01-03T07:46:39.160Z,4.70
2023-01-03T07:49:11.538Z,4.70
2023-01-03T07:51:39.188Z,4.60
2023-01-03T07:54:07.265Z,4.60
2023-01-03T07:56:33.895Z,4.60
2023-01-03T07:59:00.551Z,4.40
2023-01-03T08:01:27.669Z,4.50
2023-01-03T08:03:54.422Z,4.50
2023-01-03T08:06:23.428Z,4.50
2023-01-03T08:09:09.524Z,4.60
2023-01-03T08:11:54.873Z,4.60
2023-01-03T08:14:25.686Z,4.60
2023-01-03T08:16:53.083Z,4.50
2023-01-03T08:19:19.914Z,4.50
2023-01-03T08:21:46.537Z,4.50
2023-01-03T08:24:13.163Z,4.60
2023-01-03T08:26:39.819Z,4.60
2023-01-03T08:29:07.244Z,4.70
2023-01-03T08:31:40.032Z,4.80
2023-01-03T08:34:16.093Z,5.00
2023-01-03T08:36:51.678Z,4.90
2023-01-03T08:39:24.104Z,5.00
2023-01-03T08:42:02.162Z,5.00
2023-01-03T08:44:28.865Z,5.00
2023-01-03T08:46:58.900Z,5.00
2023-01-03T08:49:26.146Z,5.20
2023-01-03T08:51:52.732Z,5.20
2023-01-03T08:54:19.305Z,5.30
2023-01-03T08:56:45.937Z,5.50
2023-01-03T08:59:12.580Z,5.60
2023-01-03T09:01:40.286Z,5.70
2023-01-03T09:04:07.155Z,5.80
2023-01-03T09:06:34.131Z,5.90
2023-01-03T09:09:08.340Z,6.00
2023-01-03T09:11:35.067Z,6.30
2023-01-03T09:14:01.747Z,6.40
2023-01-03T09:16:28.409Z,6.40
2023-01-03T09:18:55.083Z,6.60
2023-01-03T09:21:21.730Z,6.70
2023-01-03T09:23:48.289Z,6.60
2023-01-03T09:26:14.884Z,6.70
2023-01-03T09:28:41.539Z,6.80
2023-01-03T09:31:08.159Z,6.90
2023-01-03T09:33:34.975Z,7.00
2023-01-03T09:36:01.536Z,7.10
2023-01-03T09:38:28.111Z,7.10
2023-01-03T09:41:19.283Z,7.20
2023-01-03T09:43:48.871Z,7.20
2023-01-03T09:46:19.435Z,7.20
2023-01-03T09:48:48.236Z,7.30
2023-01-03T09:51:58.661Z,7.40
2023-01-03T09:54:57.851Z,7.30
2023-01-03T09:57:54.961Z,7.40
2023-01-03T10:00:52.747Z,7.40
2023-01-03T10:03:55.605Z,7.50
2023-01-03T10:06:44.891Z,7.50
2023-01-03T10:09:37.325Z,7.60
2023-01-03T10:12:16.072Z,7.60
2023-01-03T10:15:00.780Z,7.60
2023-01-03T10:17:35.951Z,7.70
2023-01-03T10:20:02.550Z,7.70
2023-01-03T10:22:31.624Z,7.70
2023-01-03T10:25:04.425Z,7.80
2023-01-03T10:27:38.207Z,7.80
2023-01-03T10:30:12.475Z,7.90
2023-01-03T10:33:04.195Z,7.90
2023-01-03T10:35:33.421Z,8.00
2023-01-03T10:38:00.371Z,8.00
2023-01-03T10:40:38.730Z,8.10
2023-01-03T10:43:18.012Z,8.20
2023-01-03T10:46:11.925Z,8.30
2023-01-03T10:49:17.443Z,8.40
2023-01-03T10:51:42.164Z,8.40
2023-01-03T10:54:18.350Z,8.60
2023-01-03T10:56:47.119Z,8.70
2023-01-03T10:59:23.320Z,8.80
2023-01-03T11:02:03.802Z,9.00
2023-01-03T11:04:31.703Z,9.10
2023-01-03T11:06:59.705Z,9.20
2023-01-03T11:09:55.920Z,9.40
2023-01-03T11:12:39.870Z,9.50
2023-01-03T11:15:17.126Z,9.60
2023-01-03T11:18:01.472Z,9.60
2023-01-03T11:20:46.155Z,9.80
2023-01-03T11:23:24.939Z,9.80
2023-01-03T11:26:16.014Z,9.90
2023-01-03T11:28:52.817Z,9.80
2023-01-03T11:32:02.225Z,9.60
2023-01-03T11:35:24.734Z,9.70
2023-01-03T11:38:06.991Z,9.70
2023-01-03T11:40:51.919Z,9.60
2023-01-03T11:43:39.016Z,9.70
2023-01-03T11:46:16.410Z,9.70
2023-01-03T11:49:04.186Z,9.60
2023-01-03T11:51:36.646Z,9.70
2023-01-03T11:54:26.076Z,9.70
2023-01-03T11:56:54.156Z,9.70
2023-01-03T12:00:01.977Z,9.60
2023-01-03T12:03:00.361Z,9.60
2023-01-03T12:06:28.302Z,9.60
2023-01-03T12:09:16.951Z,9.70
2023-01-03T12:12:07.650Z,9.70
2023-01-03T12:14:57.859Z,9.80
2023-01-03T12:17:30.334Z,9.90
2023-01-03T12:20:02.556Z,9.80
2023-01-03T12:22:39.507Z,9.70
2023-01-03T12:25:19.004Z,9.80
2023-01-03T12:27:56.428Z,9.80
2023-01-03T12:30:40.841Z,9.90
2023-01-03T12:33:32.336Z,9.90
2023-01-03T12:36:22.486Z,9.90
2023-01-03T12:39:33.471Z,9.90
2023-01-03T12:42:04.038Z,9.90
2023-01-03T12:44:43.295Z,9.90
2023-01-03T12:47:34.429Z,9.80
2023-01-03T12:50:14.650Z,9.80
2023-01-03T12:52:42.903Z,9.90
2023-01-03T12:55:24.764Z,9.90
2023-01-03T12:57:59.327Z,9.90
2023-01-03T13:00:47.388Z,9.90
2023-01-03T13:03:23.721Z,9.90
2023-01-03T13:06:02.846Z,9.90
2023-01-03T13:08:59.098Z,9.80
2023-01-03T13:11:51.019Z,9.90
2023-01-03T13:14:23.712Z,9.90
2023-01-03T13:17:15.961Z,9.80
2023-01-03T13:19:59.722Z,9.90
2023-01-03T13:22:46.687Z,9.80
2023-01-03T13:25:38.575Z,9.80
2023-01-03T13:28:22.803Z,9.80
2023-01-03T13:30:49.588Z,9.80
2023-01-03T13:33:19.785Z,9.80
2023-01-03T13:35:46.589Z,9.80
2023-01-03T13:38:37.142Z,9.80
2023-01-03T13:41:18.260Z,9.80
2023-01-03T13:43:49.982Z,9.90
2023-01-03T13:46:25.842Z,9.90
2023-01-03T13:49:01.741Z,9.80
2023-01-03T13:51:40.976Z,9.80
2023-01-03T13:54:13.737Z,9.90
2023-01-03T13:56:43.087Z,9.90
2023-01-03T13:59:17.717Z,9.80
2023-01-03T14:01:59.224Z,9.90
2023-01-03T14:04:31.927Z,9.80
2023-01-03T14:07:30.280Z,9.80
2023-01-03T14:10:02.977Z,9.80
2023-01-03T14:12:41.283Z,9.80
2023-01-03T14:15:25.738Z,9.80
2023-01-03T14:17:56.625Z,9.80
2023-01-03T14:20:34.246Z,9.80
2023-01-03T14:23:23.755Z,9.70
2023-01-03T14:25:52.922Z,9.70
2023-01-03T14:28:26.049Z,9.60
2023-01-03T14:30:55.644Z,9.60
2023-01-03T14:33:25.051Z,9.60
2023-01-03T14:36:05.014Z,9.60
2023-01-03T14:38:33.612Z,9.60
2023-01-03T14:41:01.479Z,9.60
2023-01-03T14:43:30.229Z,9.60
2023-01-03T14:46:00.487Z,9.60
2023-01-03T14:48:27.386Z,9.50
2023-01-03T14:50:54.948Z,9.50
2023-01-03T14:53:22.425Z,9.50
2023-01-03T14:55:54.853Z,9.50
2023-01-03T14:58:35.753Z,9.40
2023-01-03T15:01:05.608Z,9.40
2023-01-03T15:03:36.812Z,9.40
2023-01-03T15:06:18.211Z,9.40
2023-01-03T15:08:46.130Z,9.40
2023-01-03T15:11:13.683Z,9.40
2023-01-03T15:13:50.304Z,9.40
2023-01-03T15:16:39.911Z,9.40
2023-01-03T15:19:23.341Z,9.40
2023-01-03T15:21:51.206Z,9.40
2023-01-03T15:24:21.267Z,9.50
2023-01-03T15:26:53.199Z,9.60
2023-01-03T15:29:24.836Z,9.60
2023-01-03T15:31:54.221Z,9.50
2023-01-03T15:34:29.671Z,9.40
2023-01-03T15:37:04.459Z,9.40
2023-01-03T15:39:42.303Z,9.40
2023-01-03T15:42:51.779Z,9.40
2023-01-03T15:45:23.953Z,9.30
2023-01-03T15:47:54.056Z,9.30
2023-01-03T15:50:21.232Z,9.30
2023-01-03T15:52:49.078Z,9.40
2023-01-03T15:55:17.056Z,9.30
2023-01-03T15:57:52.343Z,9.30
2023-01-03T16:00:22.474Z,9.30
2023-01-03T16:02:50.017Z,9.20
2023-01-03T16:05:21.956Z,9.20
2023-01-03T16:07:49.417Z,9.30
2023-01-03T16:10:16.130Z,9.20
2023-01-03T16:12:43.651Z,9.20
2023-01-03T16:15:21.803Z,9.10
2023-01-03T16:17:50.472Z,9.10
2023-01-03T16:20:18.748Z,9.10
2023-01-03T16:22:59.876Z,9.10
2023-01-03T16:25:28.326Z,9.20
2023-01-03T16:27:55.043Z,9.20
2023-01-03T16:30:21.736Z,9.20
2023-01-03T16:32:48.400Z,9.10
2023-01-03T16:35:17.144Z,9.00
2023-01-03T16:37:44.198Z,8.90
2023-01-03T16:40:19.151Z,8.90
2023-01-03T16:42:46.025Z,8.80
2023-01-03T16:45:13.023Z,8.80
2023-01-03T16:47:39.873Z,8.70
2023-01-03T16:50:13.608Z,8.70
2023-01-03T16:52:43.482Z,8.70
2023-01-03T16:55:29.734Z,8.60
2023-01-03T16:57:57.316Z,8.50
2023-01-03T17:00:34.674Z,8.50
2023-01-03T17:03:01.688Z,8.40
2023-01-03T17:05:32.859Z,8.40
2023-01-03T17:08:05.215Z,8.40
2023-01-03T17:10:36.801Z,8.30
2023-01-03T17:13:10.163Z,8.30
2023-01-03T17:15:40.122Z,8.20
2023-01-03T17:18:09.265Z,8.20
2023-01-03T17:20:35.935Z,8.20
2023-01-03T17:23:02.514Z,8.20
2023-01-03T17:25:29.034Z,8.20
2023-01-03T17:27:58.138Z,8.10
2023-01-03T17:30:27.410Z,8.10
2023-01-03T17:32:55.071Z,8.20
2023-01-03T17:35:22.097Z,8.20
2023-01-03T17:38:24.107Z,8.20
2023-01-03T17:40:36.022Z,8.20
2023-01-03T17:43:02.763Z,8.20
2023-01-03T17:45:48.367Z,8.20
2023-01-03T17:48:33.628Z,8.20
2023-01-03T17:51:01.636Z,8.10
2023-01-03T17:53:29.351Z,8.10
2023-01-03T17:55:56.013Z,8.10
2023-01-03T17:58:35.532Z,8.10
2023-01-03T18:01:03.080Z,8.00
2023-01-03T18:03:30.608Z,8.00
2023-01-03T18:05:57.811Z,7.90
2023-01-03T18:08:25.202Z,7.80
2023-01-03T18:10:53.491Z,7.70
2023-01-03T18:13:27.714Z,7.60
2023-01-03T18:15:55.405Z,7.70
2023-01-03T18:18:23.939Z,7.60
2023-01-03T18:20:51.054Z,7.60
2023-01-03T18:23:25.017Z,7.50
2023-01-03T18:25:52.364Z,7.50
2023-01-03T18:28:23.117Z,7.50
2023-01-03T18:30:49.843Z,7.50
2023-01-03T18:33:17.629Z,7.50
2023-01-03T18:35:44.715Z,7.50
2023-01-03T18:38:33.657Z,7.50
2023-01-03T18:41:04.889Z,7.50
2023-01-03T18:43:32.738Z,7.50
2023-01-03T18:45:59.504Z,7.40
2023-01-03T18:48:26.086Z,7.40
2023-01-03T18:50:58.371Z,7.40
2023-01-03T18:53:28.652Z,7.30
2023-01-03T18:55:55.841Z,7.30
2023-01-03T18:58:31.856Z,7.20
2023-01-03T19:00:58.752Z,7.20
2023-01-03T19:03:27.874Z,7.20
2023-01-03T19:05:56.122Z,7.10
2023-01-03T19:08:24.631Z,7.00
2023-01-03T19:10:51.921Z,7.00
2023-01-03T19:13:30.864Z,7.00
2023-01-03T19:15:57.562Z,7.00
2023-01-03T19:18:24.244Z,6.90
2023-01-03T19:20:51.158Z,6.90
2023-01-03T19:23:24.839Z,6.80
2023-01-03T19:25:51.788Z,6.80
2023-01-03T19:28:25.484Z,6.80
2023-01-03T19:30:52.371Z,6.80
2023-01-03T19:33:19.403Z,6.80
2023-01-03T19:35:46.609Z,6.80
2023-01-03T19:38:13.459Z,6.70
2023-01-03T19:40:41.525Z,6.70
2023-01-03T19:43:20.233Z,6.70
2023-01-03T19:45:47.272Z,6.60
2023-01-03T19:48:21.401Z,6.60
2023-01-03T19:50:49.824Z,6.50
2023-01-03T19:53:16.552Z,6.40
2023-01-03T19:55:48.992Z,6.40
2023-01-03T19:58:26.478Z,6.40
2023-01-03T20:00:54.140Z,6.40
2023-01-03T20:03:43.843Z,6.40
2023-01-03T20:06:12.947Z,6.40
2023-01-03T20:08:39.699Z,6.40
2023-01-03T20:11:10.493Z,6.30
2023-01-03T20:13:37.150Z,6.30
2023-01-03T20:16:04.989Z,6.40
2023-01-03T20:18:36.130Z,6.30
2023-01-03T20:21:22.514Z,6.40
2023-01-03T20:23:57.036Z,6.30
2023-01-03T20:26:27.017Z,6.30
2023-01-03T20:28:55.402Z,6.30
2023-01-03T20:31:22.262Z,6.30
2023-01-03T20:33:49.390Z,6.30
2023-01-03T20:36:23.087Z,6.30
2023-01-03T20:38:55.542Z,6.30
2023-01-03T20:41:35.669Z,6.30
2023-01-03T20:44:03.746Z,6.20
2023-01-03T20:46:30.492Z,6.20
2023-01-03T20:49:02.157Z,6.10
2023-01-03T20:51:29.189Z,6.10
2023-01-03T20:53:55.822Z,6.10
2023-01-03T20:56:23.116Z,6.10
2023-01-03T20:58:49.709Z,6.10
2023-01-03T21:01:16.355Z,6.00
2023-01-03T21:03:43.034Z,6.00
2023-01-03T21:06:29.934Z,6.00
2023-01-03T21:08:57.705Z,6.00
2023-01-03T21:11:32.464Z,6.00
2023-01-03T21:14:00.966Z,5.90
2023-01-03T21:16:30.412Z,6.00
2023-01-03T21:19:05.933Z,5.90
2023-01-03T21:21:33.132Z,5.90
2023-01-03T21:24:00.529Z,5.90
2023-01-03T21:26:27.408Z,5.90
2023-01-03T21:28:54.061Z,6.00
2023-01-03T21:31:22.416Z,5.90
2023-01-03T21:33:50.367Z,5.80
2023-01-03T21:36:28.736Z,5.80
2023-01-03T21:38:56.194Z,5.80
2023-01-03T21:41:25.676Z,5.80
2023-01-03T21:44:00.616Z,5.80
2023-01-03T21:46:27.617Z,5.60
2023-01-03T21:48:54.875Z,5.60
2023-01-03T21:51:35.032Z,5.60
2023-01-03T21:54:04.765Z,5.60
2023-01-03T21:56:31.296Z,5.60
2023-01-03T21:58:57.834Z,5.60
2023-01-03T22:01:24.768Z,5.60
2023-01-03T22:04:10.477Z,5.60
2023-01-03T22:06:37.962Z,5.50
2023-01-03T22:09:06.037Z,5.40
2023-01-03T22:11:33.639Z,5.40
2023-01-03T22:14:01.033Z,5.40
2023-01-03T22:16:27.662Z,5.40
2023-01-03T22:18:54.354Z,5.40
2023-01-03T22:21:21.284Z,5.40
2023-01-03T22:23:47.843Z,5.30
2023-01-03T22:26:16.162Z,5.40
2023-01-03T22:28:44.676Z,5.30
2023-01-03T22:31:16.273Z,5.30
2023-01-03T22:33:44.340Z,5.30
2023-01-03T22:36:11.864Z,5.40
2023-01-03T22:38:38.953Z,5.30
2023-01-03T22:41:16.444Z,5.30
2023-01-03T22:43:43.837Z,5.20
2023-01-03T22:46:12.681Z,5.20
2023-01-03T22:48:39.702Z,5.10
2023-01-03T22:51:09.532Z,5.20
2023-01-03T22:53:38.305Z,5.20
2023-01-03T22:56:10.707Z,5.20
2023-01-03T22:58:38.231Z,5.20
2023-01-03T23:01:09.088Z,5.20
2023-01-03T23:03:35.878Z,5.10
2023-01-03T23:06:07.011Z,5.00
2023-01-03T23:08:35.324Z,5.00
2023-01-03T23:11:35.078Z,5.10
2023-01-03T23:14:11.037Z,5.10
2023-01-03T23:16:38.775Z,5.10
2023-01-03T23:19:08.155Z,5.10
2023-01-03T23:21:35.319Z,5.10
2023-01-03T23:24:01.864Z,5.10
2023-01-03T23:26:28.382Z,5.00
2023-01-03T23:28:56.464Z,5.00
2023-01-03T23:31:24.546Z,5.00
2023-01-03T23:33:51.291Z,5.00
2023-01-03T23:36:18.590Z,5.00
2023-01-03T23:38:45.135Z,4.90
2023-01-03T23:41:11.915Z,4.90
2023-01-03T23:43:38.774Z,4.90
2023-01-03T23:46:06.607Z,4.80
2023-01-03T23:48:33.727Z,4.80
2023-01-03T23:51:08.514Z,4.70
2023-01-03T23:53:36.764Z,4.40
2023-01-03T23:56:13.523Z,4.40
2023-01-03T23:58:40.200Z,4.30
